Time;durP1;ratioP1;P1;durP2;ratioP2;P2;SDS_P1;SDS_P2;PMS_P1;PMS_P2;Temp;Humidity;BMP_temperature;BMP_pressure;BME280_temperature;BME280_humidity;BME280_pressure;Samples;Min_cycle;Max_cycle;Signal;HPM_P1;HPM_P2
2021/01/15 00:01:05;;;;;;;6.27;3.57;;;1.70;99.90;;;;;;5017919;28;20200;-47
2021/01/15 00:03:35;;;;;;;4.93;3.37;;;1.70;99.90;;;;;;5017286;28;20195;-47
2021/01/15 00:06:05;;;;;;;3.97;3.33;;;1.70;99.90;;;;;;5023447;28;20179;-46
2021/01/15 00:08:35;;;;;;;5.20;3.60;;;1.60;99.90;;;;;;5011722;28;20197;-48
2021/01/15 00:11:00;;;;;;;3.10;2.60;;;1.60;99.90;;;;;;5007457;28;20216;-47
2021/01/15 00:13:26;;;;;;;4.70;3.80;;;1.60;99.90;;;;;;4999581;28;20539;-51
2021/01/15 00:15:52;;;;;;;5.73;3.80;;;1.50;99.90;;;;;;4997883;28;20210;-49
2021/01/15 00:18:17;;;;;;;5.70;3.50;;;1.50;99.90;;;;;;5016315;28;20667;-47
2021/01/15 00:20:42;;;;;;;5.77;3.70;;;1.50;99.90;;;;;;5013000;28;20879;-46
2021/01/15 00:23:08;;;;;;;5.57;3.60;;;1.50;99.90;;;;;;5023424;28;20199;-52
2021/01/15 00:25:33;;;;;;;4.90;3.90;;;1.50;99.90;;;;;;5019280;28;20186;-48
2021/01/15 00:27:59;;;;;;;5.57;3.40;;;1.40;99.90;;;;;;5023436;28;20186;-46
2021/01/15 00:30:25;;;;;;;4.33;3.83;;;1.40;99.90;;;;;;5009806;28;20273;-51
2021/01/15 00:32:50;;;;;;;4.00;3.60;;;1.40;99.90;;;;;;5016996;28;20242;-50
2021/01/15 00:35:16;;;;;;;8.00;4.20;;;1.40;99.90;;;;;;5017402;28;20191;-51
2021/01/15 00:37:41;;;;;;;5.03;3.73;;;1.40;99.90;;;;;;5021065;28;20182;-46
2021/01/15 00:40:07;;;;;;;11.93;4.47;;;1.40;99.90;;;;;;5022874;28;20215;-46
2021/01/15 00:42:33;;;;;;;6.20;4.47;;;1.40;99.90;;;;;;5019247;28;20285;-47
2021/01/15 00:44:59;;;;;;;7.03;5.00;;;1.40;99.90;;;;;;5022529;28;20289;-48
2021/01/15 00:47:25;;;;;;;6.93;5.20;;;1.30;99.90;;;;;;5001300;28;20285;-52
2021/01/15 00:49:50;;;;;;;7.63;5.40;;;1.30;99.90;;;;;;5014332;28;20263;-49
2021/01/15 00:52:17;;;;;;;7.17;5.43;;;1.30;99.90;;;;;;5021588;28;20206;-49
2021/01/15 00:54:42;;;;;;;11.13;6.73;;;1.30;99.90;;;;;;5021230;28;20193;-47
2021/01/15 00:57:08;;;;;;;8.23;6.33;;;1.30;99.90;;;;;;5023063;28;20556;-50
2021/01/15 00:59:34;;;;;;;10.13;6.10;;;1.20;99.90;;;;;;5016330;28;20186;-50
2021/01/15 01:02:00;;;;;;;10.83;6.77;;;1.30;99.90;;;;;;5005041;28;20187;-47
2021/01/15 01:04:26;;;;;;;8.50;6.33;;;1.20;99.90;;;;;;5011291;28;20180;-52
2021/01/15 01:06:51;;;;;;;9.10;6.67;;;1.20;99.90;;;;;;5022771;28;20179;-46
2021/01/15 01:09:17;;;;;;;11.13;7.53;;;1.20;99.90;;;;;;5020080;28;20187;-51
2021/01/15 01:11:42;;;;;;;9.50;6.20;;;1.20;99.90;;;;;;5012344;28;20313;-46
2021/01/15 01:14:08;;;;;;;11.57;7.00;;;1.20;99.90;;;;;;5022680;28;20193;-51
2021/01/15 01:16:33;;;;;;;13.73;7.07;;;1.20;99.90;;;;;;5012804;28;20998;-51
2021/01/15 01:18:59;;;;;;;9.93;7.47;;;1.20;99.90;;;;;;5009716;28;20191;-51
2021/01/15 01:21:26;;;;;;;11.33;7.70;;;1.20;99.90;;;;;;5006300;28;20203;-50
2021/01/15 01:23:52;;;;;;;9.23;7.60;;;1.20;99.90;;;;;;5009679;28;20669;-50
2021/01/15 01:26:18;;;;;;;12.97;8.10;;;1.20;99.90;;;;;;5004955;28;20547;-54
2021/01/15 01:28:45;;;;;;;11.67;7.97;;;1.20;99.90;;;;;;5004987;28;20175;-47
2021/01/15 01:31:11;;;;;;;12.77;7.53;;;1.20;99.90;;;;;;5005192;28;20178;-50
2021/01/15 01:33:37;;;;;;;11.03;8.03;;;1.20;99.90;;;;;;5004205;28;20867;-47
2021/01/15 01:36:05;;;;;;;14.40;8.47;;;1.20;99.90;;;;;;5026291;28;20178;-47
2021/01/15 01:38:30;;;;;;;10.93;7.67;;;1.20;99.90;;;;;;5013181;28;21178;-49
2021/01/15 01:40:56;;;;;;;10.73;7.23;;;1.20;99.90;;;;;;5023650;28;20710;-47
2021/01/15 01:43:21;;;;;;;14.43;8.93;;;1.20;99.90;;;;;;5022997;28;20207;-49
2021/01/15 01:45:47;;;;;;;14.57;8.23;;;1.20;99.90;;;;;;5025493;28;20195;-47
2021/01/15 01:48:13;;;;;;;13.30;8.47;;;1.20;99.90;;;;;;5013796;28;20206;-54
2021/01/15 01:50:42;;;;;;;13.10;8.20;;;1.20;99.90;;;;;;5023292;28;20196;-47
2021/01/15 01:53:12;;;;;;;10.67;7.53;;;1.20;99.90;;;;;;5024987;28;20571;-52
2021/01/15 01:55:38;;;;;;;11.63;8.70;;;1.20;99.90;;;;;;5015819;28;20273;-44
2021/01/15 01:58:04;;;;;;;12.60;8.37;;;1.20;99.90;;;;;;5025999;28;20193;-44
2021/01/15 02:00:30;;;;;;;13.77;9.03;;;1.20;99.90;;;;;;5021621;28;20227;-44
2021/01/15 02:02:55;;;;;;;11.93;8.67;;;1.20;99.90;;;;;;5015006;28;20269;-48
2021/01/15 02:05:21;;;;;;;14.93;8.57;;;1.20;99.90;;;;;;5023036;28;20175;-53
2021/01/15 02:07:49;;;;;;;13.00;8.67;;;1.20;99.90;;;;;;5025637;28;20222;-48
2021/01/15 02:10:22;;;;;;;12.17;8.30;;;1.20;99.90;;;;;;5017574;28;20264;-50
2021/01/15 02:13:14;;;;;;;15.93;8.07;;;1.30;99.90;;;;;;5024692;28;20209;-50
2021/01/15 02:15:51;;;;;;;11.80;7.57;;;1.30;99.90;;;;;;5023903;28;20244;-45
2021/01/15 02:18:34;;;;;;;12.30;8.23;;;1.30;99.90;;;;;;5011885;28;20290;-51
2021/01/15 02:21:12;;;;;;;12.80;8.00;;;1.30;99.90;;;;;;5021216;28;20213;-46
2021/01/15 02:23:41;;;;;;;12.73;7.23;;;1.30;99.90;;;;;;5022837;28;20189;-44
2021/01/15 02:26:44;;;;;;;12.77;7.90;;;1.30;99.90;;;;;;5016904;28;20671;-49
2021/01/15 02:29:22;;;;;;;12.87;7.77;;;1.30;99.90;;;;;;5023964;28;20177;-48
2021/01/15 02:32:05;;;;;;;12.77;7.20;;;1.30;99.90;;;;;;5026097;28;20261;-47
2021/01/15 02:34:52;;;;;;;12.23;7.57;;;1.30;99.90;;;;;;5009012;28;20351;-47
2021/01/15 02:37:21;;;;;;;9.80;7.83;;;1.30;99.90;;;;;;5022861;28;20209;-48
2021/01/15 02:40:14;;;;;;;12.43;7.50;;;1.30;99.90;;;;;;5024024;28;20568;-47
2021/01/15 02:42:41;;;;;;;11.10;7.60;;;1.30;99.90;;;;;;5016187;28;20213;-49
2021/01/15 02:45:12;;;;;;;10.03;6.83;;;1.30;99.90;;;;;;5025004;28;20182;-49
2021/01/15 02:47:53;;;;;;;10.80;7.43;;;1.30;99.90;;;;;;5022012;28;20926;-47
2021/01/15 02:50:23;;;;;;;10.90;6.77;;;1.30;99.90;;;;;;5011531;28;20679;-52
2021/01/15 02:52:49;;;;;;;11.00;8.07;;;1.30;99.90;;;;;;5024346;28;20213;-45
2021/01/15 02:55:15;;;;;;;10.23;6.97;;;1.30;99.90;;;;;;5022859;28;20622;-55
2021/01/15 02:57:41;;;;;;;15.03;6.73;;;1.30;99.90;;;;;;5013763;28;20197;-46
2021/01/15 03:00:19;;;;;;;9.90;6.10;;;1.30;99.90;;;;;;5024387;28;20216;-49
2021/01/15 03:03:03;;;;;;;8.30;5.83;;;1.30;99.90;;;;;;5023496;28;20202;-48
2021/01/15 03:05:39;;;;;;;8.77;5.47;;;1.30;99.90;;;;;;5009777;28;20246;-48
2021/01/15 03:08:05;;;;;;;10.53;5.10;;;1.30;99.90;;;;;;5024819;28;20186;-47
2021/01/15 03:10:33;;;;;;;8.40;5.67;;;1.20;99.90;;;;;;5020118;28;20227;-49
2021/01/15 03:13:01;;;;;;;10.60;5.63;;;1.30;99.90;;;;;;5016453;28;20305;-49
2021/01/15 03:15:31;;;;;;;7.20;4.60;;;1.30;99.90;;;;;;5019929;28;20895;-49
2021/01/15 03:17:57;;;;;;;8.03;5.83;;;1.20;99.90;;;;;;5024452;28;20248;-46
2021/01/15 03:20:24;;;;;;;10.67;5.10;;;1.20;99.90;;;;;;5009741;28;20214;-48
2021/01/15 03:22:50;;;;;;;8.27;5.57;;;1.20;99.90;;;;;;5023882;28;20193;-48
2021/01/15 03:25:17;;;;;;;7.20;5.00;;;1.20;99.90;;;;;;5022344;28;20203;-51
2021/01/15 03:27:52;;;;;;;7.07;5.30;;;1.20;99.90;;;;;;5011958;28;20278;-47
2021/01/15 03:30:23;;;;;;;8.63;5.40;;;1.20;99.90;;;;;;5021934;28;20218;-53
2021/01/15 03:32:54;;;;;;;9.47;5.10;;;1.20;99.90;;;;;;5019090;28;20698;-47
2021/01/15 03:35:23;;;;;;;9.30;5.00;;;1.20;99.90;;;;;;5010719;28;20202;-53
2021/01/15 03:37:54;;;;;;;9.67;5.20;;;1.20;99.90;;;;;;5023720;28;20602;-47
2021/01/15 03:40:20;;;;;;;8.67;5.50;;;1.20;99.90;;;;;;5020257;28;20265;-51
2021/01/15 03:42:46;;;;;;;7.37;5.03;;;1.20;99.90;;;;;;5022632;28;20205;-51
2021/01/15 03:45:12;;;;;;;7.13;5.10;;;1.20;99.90;;;;;;5014157;28;20590;-55
2021/01/15 03:47:38;;;;;;;7.80;5.37;;;1.20;99.90;;;;;;5020868;28;20200;-45
2021/01/15 03:50:04;;;;;;;6.50;4.47;;;1.20;99.90;;;;;;5014018;28;20556;-51
2021/01/15 03:52:30;;;;;;;8.53;4.63;;;1.20;99.90;;;;;;5022459;28;20203;-50
2021/01/15 03:54:55;;;;;;;7.53;4.43;;;1.20;99.90;;;;;;5026187;28;20329;-49
2021/01/15 03:57:21;;;;;;;7.47;5.00;;;1.20;99.90;;;;;;5021703;28;20195;-53
2021/01/15 03:59:46;;;;;;;7.37;5.13;;;1.20;99.90;;;;;;5011571;28;20198;-47
2021/01/15 04:02:12;;;;;;;6.47;4.57;;;1.20;99.90;;;;;;5022601;28;20186;-51
2021/01/15 04:04:37;;;;;;;6.50;4.50;;;1.20;99.90;;;;;;5020542;28;20180;-46
2021/01/15 04:07:02;;;;;;;6.27;4.90;;;1.20;99.90;;;;;;5013004;28;20284;-48
2021/01/15 04:09:28;;;;;;;8.50;4.47;;;1.20;99.90;;;;;;5019226;28;20950;-48
2021/01/15 04:11:53;;;;;;;7.70;4.47;;;1.20;99.90;;;;;;5023638;28;20195;-50
2021/01/15 04:14:19;;;;;;;6.73;4.70;;;1.20;99.90;;;;;;5015064;28;20260;-49
2021/01/15 04:16:52;;;;;;;6.87;4.37;;;1.10;99.90;;;;;;5024319;28;20238;-47
2021/01/15 04:19:18;;;;;;;8.20;4.50;;;1.10;99.90;;;;;;5017370;28;20599;-48
2021/01/15 04:21:44;;;;;;;9.40;4.40;;;1.10;99.90;;;;;;5013754;28;20313;-52
2021/01/15 04:24:10;;;;;;;6.87;4.63;;;1.10;99.90;;;;;;5017608;28;20220;-50
2021/01/15 04:26:35;;;;;;;6.83;4.33;;;1.10;99.90;;;;;;5014825;28;20189;-51
2021/01/15 04:29:01;;;;;;;7.67;4.40;;;1.10;99.90;;;;;;5016011;28;20178;-47
2021/01/15 04:31:26;;;;;;;7.07;4.90;;;1.10;99.90;;;;;;5007518;28;20929;-50
2021/01/15 04:33:52;;;;;;;8.37;4.67;;;1.00;99.90;;;;;;5024282;28;20995;-52
2021/01/15 04:36:17;;;;;;;6.83;4.53;;;1.10;99.90;;;;;;5017624;28;20309;-47
2021/01/15 04:38:43;;;;;;;8.10;5.13;;;1.00;99.90;;;;;;5019127;28;20183;-49
2021/01/15 04:41:09;;;;;;;7.90;4.50;;;1.00;99.90;;;;;;5025276;28;20202;-52
2021/01/15 04:43:38;;;;;;;5.57;4.77;;;1.00;99.90;;;;;;5022661;28;20205;-49
2021/01/15 04:46:05;;;;;;;5.63;4.43;;;1.00;99.90;;;;;;5017162;28;20197;-48
2021/01/15 04:48:34;;;;;;;4.83;4.20;;;1.00;99.90;;;;;;5021363;28;20393;-52
2021/01/15 04:51:01;;;;;;;6.27;4.67;;;1.00;99.90;;;;;;5027321;28;20604;-48
2021/01/15 04:53:29;;;;;;;5.83;4.07;;;1.00;99.90;;;;;;5012087;28;20282;-45
2021/01/15 04:55:58;;;;;;;5.67;4.27;;;1.00;99.90;;;;;;5027081;28;20679;-46
2021/01/15 04:58:25;;;;;;;7.67;4.20;;;1.00;99.90;;;;;;5023506;28;20654;-50
2021/01/15 05:00:56;;;;;;;7.27;4.33;;;0.90;99.90;;;;;;5016730;28;20242;-46
2021/01/15 05:03:26;;;;;;;6.50;4.67;;;0.90;99.90;;;;;;5022048;28;20289;-51
2021/01/15 05:05:59;;;;;;;7.17;5.60;;;0.90;99.90;;;;;;5015775;28;20188;-52
2021/01/15 05:08:28;;;;;;;7.43;4.43;;;0.90;99.90;;;;;;5006570;28;20209;-52
2021/01/15 05:10:55;;;;;;;8.43;4.63;;;0.90;99.90;;;;;;5026993;28;20186;-51
2021/01/15 05:13:21;;;;;;;8.87;4.77;;;0.90;99.90;;;;;;5023815;28;20690;-53
2021/01/15 05:15:49;;;;;;;6.93;4.80;;;0.90;99.90;;;;;;5017805;28;20228;-49
2021/01/15 05:18:16;;;;;;;9.00;5.43;;;0.90;99.90;;;;;;5025055;28;20194;-51
2021/01/15 05:20:43;;;;;;;8.90;5.10;;;0.90;99.90;;;;;;5024523;28;20623;-50
2021/01/15 05:23:09;;;;;;;6.17;4.73;;;0.90;99.90;;;;;;5019708;28;20203;-54
2021/01/15 05:25:40;;;;;;;7.03;5.37;;;0.90;99.90;;;;;;5014458;28;20214;-45
2021/01/15 05:28:06;;;;;;;6.93;5.00;;;0.90;99.90;;;;;;5026667;28;20667;-45
2021/01/15 05:30:31;;;;;;;6.47;5.03;;;0.90;99.90;;;;;;5023431;28;20178;-50
2021/01/15 05:32:59;;;;;;;7.70;5.00;;;0.80;99.90;;;;;;5021189;28;20213;-48
2021/01/15 05:35:47;;;;;;;9.63;4.83;;;0.90;99.90;;;;;;5023299;28;20259;-53
2021/01/15 05:38:15;;;;;;;8.37;5.27;;;0.80;99.90;;;;;;5016279;28;20223;-58
2021/01/15 05:40:44;;;;;;;8.00;5.03;;;0.80;99.90;;;;;;5018392;28;20214;-46
2021/01/15 05:43:20;;;;;;;6.67;5.03;;;0.80;99.90;;;;;;5025507;28;20620;-53
2021/01/15 05:46:06;;;;;;;7.57;5.10;;;0.80;99.90;;;;;;5025014;28;20215;-49
2021/01/15 05:48:31;;;;;;;7.77;5.23;;;0.80;99.90;;;;;;5000024;28;20213;-47
2021/01/15 05:50:57;;;;;;;10.37;6.30;;;0.80;99.90;;;;;;5017699;28;20183;-49
2021/01/15 05:53:23;;;;;;;7.00;5.10;;;0.80;99.90;;;;;;5017243;28;20213;-47
2021/01/15 05:55:55;;;;;;;9.23;5.50;;;0.80;99.90;;;;;;5011494;28;20201;-50
2021/01/15 05:58:21;;;;;;;10.27;6.27;;;0.80;99.90;;;;;;5020395;28;20220;-45
2021/01/15 06:00:51;;;;;;;7.93;6.07;;;0.80;99.90;;;;;;5018731;28;20840;-54
2021/01/15 06:03:17;;;;;;;7.97;5.13;;;0.80;99.90;;;;;;5012232;28;20210;-52
2021/01/15 06:05:48;;;;;;;8.53;5.07;;;0.80;99.90;;;;;;5026433;28;20184;-50
2021/01/15 06:08:14;;;;;;;11.20;6.23;;;0.80;99.90;;;;;;5018779;28;20558;-52
2021/01/15 06:10:46;;;;;;;9.43;6.03;;;0.80;99.90;;;;;;5008685;28;20198;-49
2021/01/15 06:13:32;;;;;;;7.13;5.20;;;0.80;99.90;;;;;;5027767;28;20733;-50
2021/01/15 06:16:00;;;;;;;9.97;5.63;;;0.70;99.90;;;;;;5020751;28;20192;-49
2021/01/15 06:18:26;;;;;;;9.13;5.33;;;0.70;99.90;;;;;;5018406;28;20185;-48
2021/01/15 06:21:06;;;;;;;6.80;5.33;;;0.70;99.90;;;;;;5021072;28;20206;-49
2021/01/15 06:23:38;;;;;;;8.03;5.43;;;0.70;99.90;;;;;;5019756;28;20700;-50
2021/01/15 06:26:10;;;;;;;8.83;5.67;;;0.70;99.90;;;;;;5008775;28;20927;-48
2021/01/15 06:28:37;;;;;;;7.43;5.43;;;0.70;99.90;;;;;;5024179;28;20192;-50
2021/01/15 06:31:05;;;;;;;6.73;5.17;;;0.70;99.90;;;;;;5019139;28;20182;-52
2021/01/15 06:33:31;;;;;;;7.97;5.87;;;0.70;99.90;;;;;;5016470;28;20241;-51
2021/01/15 06:35:56;;;;;;;10.97;6.93;;;0.70;99.90;;;;;;5021554;28;20207;-50
2021/01/15 06:38:31;;;;;;;8.03;5.87;;;0.70;99.90;;;;;;5021751;28;20273;-53
2021/01/15 06:40:58;;;;;;;9.20;6.10;;;0.70;99.90;;;;;;5010837;28;20931;-53
2021/01/15 06:43:30;;;;;;;9.37;6.30;;;0.60;99.90;;;;;;5024506;28;20202;-53
2021/01/15 06:46:00;;;;;;;9.20;6.00;;;0.70;99.90;;;;;;5018447;28;20224;-52
2021/01/15 06:48:33;;;;;;;8.47;6.00;;;0.60;99.90;;;;;;5022898;28;20281;-52
2021/01/15 06:50:59;;;;;;;10.93;6.33;;;0.60;99.90;;;;;;5013711;28;20245;-51
2021/01/15 06:53:27;;;;;;;8.40;6.07;;;0.60;99.90;;;;;;5021416;28;20220;-51
2021/01/15 06:55:58;;;;;;;12.60;5.93;;;0.60;99.90;;;;;;5003873;28;20181;-51
2021/01/15 06:58:40;;;;;;;8.13;5.90;;;0.60;99.90;;;;;;5025747;28;20193;-50
2021/01/15 07:01:19;;;;;;;9.30;6.03;;;0.60;99.90;;;;;;5019999;28;20267;-48
2021/01/15 07:04:05;;;;;;;8.93;6.30;;;0.60;99.90;;;;;;5014490;28;20212;-51
2021/01/15 07:06:33;;;;;;;7.67;6.17;;;0.60;99.90;;;;;;5015882;28;20185;-49
2021/01/15 07:09:00;;;;;;;8.90;6.53;;;0.60;99.90;;;;;;5016430;28;20177;-46
2021/01/15 07:11:28;;;;;;;9.73;6.07;;;0.60;99.90;;;;;;5009649;28;20192;-47
2021/01/15 07:13:55;;;;;;;8.13;6.03;;;0.60;99.90;;;;;;5020550;28;20885;-50
2021/01/15 07:16:29;;;;;;;13.33;6.87;;;0.60;99.90;;;;;;5024528;28;20197;-49
2021/01/15 07:19:04;;;;;;;10.17;6.20;;;0.60;99.90;;;;;;5016788;28;20189;-47
2021/01/15 07:21:34;;;;;;;7.53;6.00;;;0.60;99.90;;;;;;5016582;28;20213;-50
2021/01/15 07:24:04;;;;;;;9.00;5.77;;;0.60;99.90;;;;;;5016329;28;20206;-52
2021/01/15 07:26:39;;;;;;;11.57;6.07;;;0.60;99.90;;;;;;5009003;28;20647;-53
2021/01/15 07:29:08;;;;;;;8.63;6.83;;;0.50;99.90;;;;;;5022409;28;20209;-48
2021/01/15 07:31:38;;;;;;;9.20;6.13;;;0.50;99.90;;;;;;5023069;28;20205;-52
2021/01/15 07:34:09;;;;;;;10.77;6.70;;;0.50;99.90;;;;;;5018698;28;20817;-49
2021/01/15 07:36:37;;;;;;;8.17;5.97;;;0.50;99.90;;;;;;5021777;28;20193;-57
2021/01/15 07:39:11;;;;;;;9.37;6.53;;;0.50;99.90;;;;;;5014872;28;20883;-50
2021/01/15 07:41:52;;;;;;;10.90;6.77;;;0.50;99.90;;;;;;5005425;28;20569;-53
2021/01/15 07:44:27;;;;;;;8.27;5.93;;;0.50;99.90;;;;;;5021976;28;20654;-49
2021/01/15 07:46:56;;;;;;;11.30;6.93;;;0.50;99.90;;;;;;5018137;28;20176;-48
2021/01/15 07:49:40;;;;;;;9.43;6.40;;;0.50;99.90;;;;;;4995753;28;20188;-51
2021/01/15 07:52:07;;;;;;;8.20;5.63;;;0.50;99.90;;;;;;5021700;28;20212;-54
2021/01/15 07:54:49;;;;;;;10.23;6.57;;;0.50;99.90;;;;;;4999142;28;21327;-48
2021/01/15 07:57:19;;;;;;;7.30;5.80;;;0.50;99.90;;;;;;5005576;28;20219;-51
2021/01/15 07:59:45;;;;;;;9.87;6.93;;;0.50;99.90;;;;;;5021838;28;20868;-50
2021/01/15 08:02:15;;;;;;;10.57;7.30;;;0.50;99.90;;;;;;5022620;28;20219;-52
2021/01/15 08:04:40;;;;;;;11.57;7.57;;;0.50;99.90;;;;;;5017723;28;20201;-51
2021/01/15 08:07:09;;;;;;;10.23;6.63;;;0.40;99.90;;;;;;5023553;28;20231;-49
2021/01/15 08:09:42;;;;;;;10.50;7.20;;;0.40;99.90;;;;;;5003874;28;20197;-49
2021/01/15 08:12:07;;;;;;;10.77;7.37;;;0.40;99.90;;;;;;5000837;28;20271;-52
2021/01/15 08:14:33;;;;;;;11.90;6.83;;;0.40;99.90;;;;;;5014419;28;20871;-50
2021/01/15 08:16:59;;;;;;;12.97;7.73;;;0.40;99.90;;;;;;5014849;28;20184;-48
2021/01/15 08:19:26;;;;;;;10.33;7.20;;;0.40;99.90;;;;;;5014340;28;20205;-48
2021/01/15 08:21:52;;;;;;;12.63;7.97;;;0.40;99.90;;;;;;5020793;28;20236;-49
2021/01/15 08:24:18;;;;;;;13.23;8.30;;;0.40;99.90;;;;;;5013523;28;20271;-52
2021/01/15 08:26:52;;;;;;;14.33;7.40;;;0.40;99.90;;;;;;5008270;28;20204;-48
2021/01/15 08:29:19;;;;;;;11.90;7.40;;;0.40;99.90;;;;;;5001052;28;20196;-50
2021/01/15 08:31:44;;;;;;;12.60;7.77;;;0.30;99.90;;;;;;5017973;28;20553;-47
2021/01/15 08:34:13;;;;;;;9.00;6.80;;;0.40;99.90;;;;;;5015200;28;20193;-47
2021/01/15 08:36:48;;;;;;;15.17;7.97;;;0.40;99.90;;;;;;5015090;28;20191;-46
2021/01/15 08:39:14;;;;;;;13.07;7.57;;;0.40;99.90;;;;;;5016731;28;20246;-47
2021/01/15 08:41:40;;;;;;;11.13;7.20;;;0.40;99.90;;;;;;5007764;28;20214;-52
2021/01/15 08:44:07;;;;;;;11.53;7.57;;;0.30;99.90;;;;;;5010219;28;20197;-51
2021/01/15 08:46:34;;;;;;;11.90;7.40;;;0.40;99.90;;;;;;5021015;28;20185;-51
2021/01/15 08:49:05;;;;;;;12.63;7.73;;;0.30;99.90;;;;;;5015615;28;20204;-51
2021/01/15 08:51:32;;;;;;;10.93;7.27;;;0.30;99.90;;;;;;5016147;28;20232;-52
2021/01/15 08:54:04;;;;;;;13.43;8.00;;;0.30;99.90;;;;;;5019419;28;20204;-53
2021/01/15 08:56:42;;;;;;;10.40;7.73;;;0.30;99.90;;;;;;5010775;28;20579;-53
2021/01/15 08:59:25;;;;;;;11.83;7.13;;;0.30;99.90;;;;;;5009353;28;20728;-48
2021/01/15 09:01:52;;;;;;;14.03;7.73;;;0.30;99.90;;;;;;5013597;28;20210;-47
2021/01/15 09:04:23;;;;;;;13.23;7.77;;;0.30;99.90;;;;;;5017451;28;20216;-49
2021/01/15 09:06:52;;;;;;;13.17;8.63;;;0.30;99.90;;;;;;5013894;28;20203;-48
2021/01/15 09:09:20;;;;;;;13.13;7.13;;;0.30;99.90;;;;;;5023543;28;20208;-49
2021/01/15 09:11:48;;;;;;;10.80;6.77;;;0.30;99.90;;;;;;5010161;28;20669;-50
2021/01/15 09:14:17;;;;;;;10.33;7.93;;;0.20;99.90;;;;;;5006394;28;20224;-48
2021/01/15 09:16:46;;;;;;;13.80;7.80;;;0.30;99.90;;;;;;5018774;28;20183;-52
2021/01/15 09:19:12;;;;;;;10.80;7.20;;;0.20;99.90;;;;;;5016398;28;20727;-48
2021/01/15 09:21:56;;;;;;;11.00;7.43;;;0.20;99.90;;;;;;5016244;28;20212;-48
2021/01/15 09:24:22;;;;;;;13.50;6.93;;;0.20;99.90;;;;;;5020565;28;20270;-47
2021/01/15 09:27:01;;;;;;;10.63;6.97;;;0.20;99.90;;;;;;5011349;28;20177;-50
2021/01/15 09:29:28;;;;;;;12.37;7.50;;;0.30;99.90;;;;;;5016137;28;20188;-54
2021/01/15 09:31:54;;;;;;;11.17;7.03;;;0.30;99.90;;;;;;5011176;28;20188;-50
2021/01/15 09:34:20;;;;;;;11.87;7.40;;;0.30;99.90;;;;;;5018682;28;20216;-51
2021/01/15 09:36:48;;;;;;;10.60;6.60;;;0.30;99.90;;;;;;5016323;28;20192;-48
2021/01/15 09:39:15;;;;;;;9.37;6.73;;;0.20;99.90;;;;;;5027222;28;20560;-52
2021/01/15 09:41:49;;;;;;;9.23;6.90;;;0.20;99.90;;;;;;5018043;28;20196;-53
2021/01/15 09:44:16;;;;;;;10.87;6.97;;;0.30;99.90;;;;;;5020626;28;20212;-47
2021/01/15 09:46:42;;;;;;;12.53;7.33;;;0.30;99.90;;;;;;5011444;28;20222;-54
2021/01/15 09:49:08;;;;;;;11.60;7.00;;;0.30;99.90;;;;;;5023888;28;20200;-49
2021/01/15 09:51:34;;;;;;;10.63;6.23;;;0.20;99.90;;;;;;5020013;28;20617;-52
2021/01/15 09:53:59;;;;;;;11.37;6.97;;;0.30;99.90;;;;;;5019651;28;20261;-46
2021/01/15 09:56:30;;;;;;;14.03;7.93;;;0.20;99.90;;;;;;5025831;28;20270;-47
2021/01/15 09:59:00;;;;;;;12.07;7.70;;;0.20;99.90;;;;;;5014538;28;20208;-52
2021/01/15 10:01:27;;;;;;;9.47;6.80;;;0.20;99.90;;;;;;5014774;28;20291;-51
2021/01/15 10:03:57;;;;;;;10.17;7.13;;;0.30;99.90;;;;;;5021744;28;20199;-48
2021/01/15 10:06:24;;;;;;;9.33;6.60;;;0.30;99.90;;;;;;5021193;28;20537;-47
2021/01/15 10:08:50;;;;;;;8.83;6.37;;;0.20;99.90;;;;;;5016897;28;20181;-48
2021/01/15 10:11:23;;;;;;;11.60;7.50;;;0.20;99.90;;;;;;5025632;28;20227;-49
2021/01/15 10:13:52;;;;;;;9.60;6.93;;;0.30;99.90;;;;;;5012673;28;20197;-47
2021/01/15 10:16:17;;;;;;;10.17;6.43;;;0.20;99.90;;;;;;5013378;28;20592;-49
2021/01/15 10:18:43;;;;;;;9.97;6.57;;;0.20;99.90;;;;;;5021559;28;20191;-53
2021/01/15 10:21:09;;;;;;;8.13;5.23;;;0.30;99.90;;;;;;5019557;28;20254;-47
2021/01/15 10:23:35;;;;;;;9.67;6.47;;;0.30;99.90;;;;;;5017770;28;20267;-51
2021/01/15 10:26:02;;;;;;;10.93;6.80;;;0.20;99.90;;;;;;5022848;28;20196;-50
2021/01/15 10:28:27;;;;;;;10.77;7.37;;;0.20;99.90;;;;;;5015964;28;20196;-54
2021/01/15 10:30:53;;;;;;;10.83;6.50;;;0.30;99.90;;;;;;5009543;28;21372;-48
2021/01/15 10:33:23;;;;;;;8.53;5.90;;;0.30;99.90;;;;;;5025237;28;20210;-53
2021/01/15 10:35:49;;;;;;;10.17;6.90;;;0.20;99.90;;;;;;5014761;28;20180;-49
2021/01/15 10:38:15;;;;;;;10.67;6.70;;;0.20;99.90;;;;;;5023987;28;20208;-52
2021/01/15 10:40:42;;;;;;;12.93;6.83;;;0.20;99.90;;;;;;5016414;28;20222;-51
2021/01/15 10:43:08;;;;;;;9.63;6.07;;;0.20;99.90;;;;;;5015052;28;20778;-50
2021/01/15 10:45:33;;;;;;;9.97;6.40;;;0.20;99.90;;;;;;5016401;28;20278;-50
2021/01/15 10:47:59;;;;;;;10.10;6.20;;;0.20;99.90;;;;;;5011853;28;20227;-53
2021/01/15 10:50:25;;;;;;;9.63;6.40;;;0.20;99.90;;;;;;5019106;28;20177;-51
2021/01/15 10:52:51;;;;;;;10.73;6.63;;;0.20;99.90;;;;;;5011184;28;20633;-50
2021/01/15 10:55:17;;;;;;;8.90;6.57;;;0.20;99.90;;;;;;5017078;28;20188;-49
2021/01/15 10:57:44;;;;;;;13.40;6.30;;;0.20;99.90;;;;;;5021385;28;20187;-48
2021/01/15 11:00:11;;;;;;;8.53;5.70;;;0.20;99.90;;;;;;5016281;28;20212;-55
2021/01/15 11:02:37;;;;;;;9.23;5.77;;;0.20;99.90;;;;;;5010155;28;20259;-49
2021/01/15 11:05:02;;;;;;;9.93;6.33;;;0.20;99.90;;;;;;5009214;28;20610;-54
2021/01/15 11:07:28;;;;;;;8.57;5.80;;;0.20;99.90;;;;;;5015159;28;20335;-48
2021/01/15 11:09:53;;;;;;;9.37;5.83;;;0.20;99.90;;;;;;5016303;28;20185;-48
2021/01/15 11:12:20;;;;;;;8.10;6.10;;;0.20;99.90;;;;;;5013893;28;20208;-51
2021/01/15 11:14:45;;;;;;;9.17;5.80;;;0.30;99.90;;;;;;5009168;28;20184;-52
2021/01/15 11:17:11;;;;;;;11.50;5.30;;;0.20;99.90;;;;;;5000518;28;20557;-55
2021/01/15 11:19:36;;;;;;;7.10;5.63;;;0.20;99.90;;;;;;5014413;28;20307;-52
2021/01/15 11:22:02;;;;;;;7.67;5.10;;;0.20;99.90;;;;;;5001601;28;20209;-51
2021/01/15 11:24:27;;;;;;;8.53;5.20;;;0.20;99.90;;;;;;5017641;28;20179;-49
2021/01/15 11:26:53;;;;;;;7.37;5.20;;;0.30;99.90;;;;;;5019959;28;20199;-49
2021/01/15 11:29:18;;;;;;;8.13;5.83;;;0.30;99.90;;;;;;5012146;28;20172;-50
2021/01/15 11:31:44;;;;;;;6.67;5.13;;;0.30;99.90;;;;;;5021562;28;21579;-48
2021/01/15 11:34:10;;;;;;;8.37;5.30;;;0.30;99.90;;;;;;5005006;28;20603;-56
2021/01/15 11:36:36;;;;;;;6.63;4.70;;;0.30;99.90;;;;;;5022597;28;20188;-47
2021/01/15 11:39:10;;;;;;;6.87;5.67;;;0.30;99.90;;;;;;5015906;28;20188;-53
2021/01/15 11:41:36;;;;;;;7.23;4.63;;;0.30;99.90;;;;;;5019673;28;20288;-46
2021/01/15 11:44:02;;;;;;;8.80;5.53;;;0.30;99.90;;;;;;5016616;28;20669;-53
2021/01/15 11:46:28;;;;;;;7.93;5.00;;;0.30;99.90;;;;;;5009531;28;20184;-47
2021/01/15 11:48:53;;;;;;;6.80;4.33;;;0.30;99.90;;;;;;5010969;28;20292;-48
2021/01/15 11:51:18;;;;;;;6.87;4.73;;;0.30;99.90;;;;;;5027211;28;20184;-46
2021/01/15 11:53:44;;;;;;;5.23;4.60;;;0.30;99.90;;;;;;5020152;28;20210;-46
2021/01/15 11:56:10;;;;;;;6.70;4.50;;;0.30;99.90;;;;;;5015534;28;20545;-55
2021/01/15 11:58:36;;;;;;;6.53;4.63;;;0.30;99.90;;;;;;5017038;28;20192;-52
2021/01/15 12:01:03;;;;;;;8.77;5.63;;;0.30;99.90;;;;;;5020235;28;20246;-56
2021/01/15 12:03:29;;;;;;;6.80;4.97;;;0.30;99.90;;;;;;5014306;28;20230;-46
2021/01/15 12:05:54;;;;;;;5.67;4.33;;;0.30;99.90;;;;;;5012554;28;20650;-47
2021/01/15 12:08:21;;;;;;;8.63;4.93;;;0.30;99.90;;;;;;5019754;28;20164;-48
2021/01/15 12:11:02;;;;;;;6.30;4.33;;;0.30;99.90;;;;;;5018716;28;20279;-46
2021/01/15 12:13:29;;;;;;;5.43;3.77;;;0.30;99.90;;;;;;5013439;28;20869;-48
2021/01/15 12:15:55;;;;;;;5.97;4.43;;;0.30;99.90;;;;;;5015795;28;20545;-46
2021/01/15 12:18:22;;;;;;;8.10;4.43;;;0.30;99.90;;;;;;5004714;28;20249;-45
2021/01/15 12:20:48;;;;;;;7.97;4.67;;;0.30;99.90;;;;;;5008085;28;20210;-50
2021/01/15 12:23:14;;;;;;;6.93;4.40;;;0.30;99.90;;;;;;5019426;28;20553;-54
2021/01/15 12:25:40;;;;;;;6.80;4.37;;;0.30;99.90;;;;;;5008014;28;20615;-51
2021/01/15 12:28:10;;;;;;;6.37;3.87;;;0.30;99.90;;;;;;5009289;28;20301;-52
2021/01/15 12:30:36;;;;;;;5.90;4.17;;;0.20;99.90;;;;;;5009741;28;20193;-48
2021/01/15 12:33:05;;;;;;;5.60;3.97;;;0.30;99.90;;;;;;5010042;28;20620;-54
2021/01/15 12:35:31;;;;;;;5.27;3.80;;;0.30;99.90;;;;;;5002513;28;20194;-49
2021/01/15 12:38:03;;;;;;;5.53;3.47;;;0.20;99.90;;;;;;5020024;28;20545;-53
2021/01/15 12:40:28;;;;;;;5.30;4.23;;;0.20;99.90;;;;;;5020726;28;20281;-48
2021/01/15 12:42:54;;;;;;;4.33;3.70;;;0.30;99.90;;;;;;5017231;28;20602;-45
2021/01/15 12:45:19;;;;;;;6.80;3.70;;;0.30;99.90;;;;;;5007930;28;20222;-46
2021/01/15 12:47:45;;;;;;;5.57;4.17;;;0.20;99.90;;;;;;5015704;28;20225;-48
2021/01/15 12:50:11;;;;;;;4.33;3.50;;;0.30;99.90;;;;;;5018868;28;20177;-53
2021/01/15 12:52:37;;;;;;;4.40;3.50;;;0.30;99.90;;;;;;5006067;28;20208;-47
2021/01/15 12:55:03;;;;;;;6.03;3.33;;;0.30;99.90;;;;;;5021324;28;20709;-54
2021/01/15 12:57:30;;;;;;;5.60;3.90;;;0.20;99.90;;;;;;5015513;28;20275;-45
2021/01/15 12:59:55;;;;;;;5.80;4.00;;;0.30;99.90;;;;;;5016906;28;20645;-55